74VA weather

Inova Fair Oaks Hospital Heliport
Fairfax, Virginia, United States

Public forecast

Using degrees Fahrenheit for public forecast. Weather courtesy of forecast.io.

Closest aviation weather report (METAR) to Inova Fair Oaks Hospital Heliport

Closest report is Washington Dulles International Airport, 5.1 nm (9.4 km) NW. Retrieved 2020/05/30 17:52 UTC (9 minutes ago):

KIAD 301752Z 00000KT 10SM FEW045 FEW120 26/09 A2996 RMK AO2 SLP144 T02610089 10267 20206 57010

Closest aviation forecast (TAF) to Inova Fair Oaks Hospital Heliport

Closest forecast is Washington Dulles International Airport, 5.1 nm (9.4 km) NW. Retrieved 2020/05/30 18:30 UTC (0 seconds ago):

TAF KIAD 301727Z 3018/3124 34008KT P6SM FEW120 FM310300 34010KT P6SM FEW250 FM310800 34006KT P6SM FEW250 FM311400 33013G19KT P6SM SKC